Latest Coastal Weather Observations for St Helens

IDT60701

Issued at 8:32 am EST Thursday 7 May 2015 (issued every 10 minutes, with the page automatically refreshed every 10 minutes)

About coastal observations | Map of coastal stations | Coastal observations for TAS | Marine services | Other Formats
Station Details ID: 092120 Name: ST HELENS AERODROME Lat: -41.34 Lon: 148.28 Height: 48.0 m
Data from the previous 72 hours. | See also: Recent months at St Helens
Date/Time
EST
Temp

°C
Wind Pressure Rain
since 9am
mm
Weather Cloud Vis
km
Sea
Height
m
Swell
Dir
 
Speed
knots
Gust
knots
hPa Trend Height
m
Period
s
Dir
07/08:30am 8.7 W 6 10 1006.9 - 0.0 - Partly cloudy 10 - - - -
07/08:00am 7.5 W 5 10 1006.8 - 0.0 - - 10 - - - -
07/07:30am 7.2 W 5 8 1006.3 - 0.0 - - 10 - - - -
07/07:00am 6.9 W 5 8 1006.2 - 0.0 - - 10 - - - -
07/06:30am 7.4 W 4 9 1005.7 - 0.0 - - 10 - - - -
07/06:00am 8.1 WNW 8 11 1005.4 - 0.0 Fine Mostly clear 30 - - - -
07/05:30am 8.1 W 6 11 1005.1 - 0.0 - - 10 - - - -
07/05:00am 8.4 W 8 15 1004.6 - 0.0 - - 10 - - - -
07/04:30am 8.2 W 9 24 1004.6 - 0.0 - - 10 - - - -
07/04:00am 8.2 W 8 15 1004.0 - 0.0 - - 10 - - - -
07/03:30am 8.4 W 8 16 1004.1 - 0.0 - - 10 - - - -
07/03:00am 8.5 W 8 17 1004.0 - 0.0 - - 10 - - - -
07/02:30am 8.4 W 8 17 1004.0 - 0.0 - - 10 - - - -
07/02:00am 8.5 W 8 16 1003.8 - 0.0 - - 10 - - - -
07/01:30am 8.6 W 9 17 1004.1 - 0.0 - Partly cloudy 10 - - - -
07/01:00am 8.8 W 10 17 1003.8 - 0.0 - Partly cloudy 10 - - - -
07/12:30am 8.5 W 10 20 1003.7 - 0.0 - - 10 - - - -
07/12:00am 8.0 W 9 22 1004.2 - 0.0 - - 10 - - - -
 
Date/Time
EST
Temp

°C
Wind Pressure Rain
since 9am
mm
Weather Cloud Vis
km
Sea
Height
m
Swell
Dir
 
Speed
knots
Gust
knots
hPa Trend Height
m
Period
s
Dir
06/11:30pm 8.3 W 10 16 1004.5 - 0.0 - - 10 - - - -
06/11:00pm 7.7 WSW 6 12 1004.9 - 0.0 - - 10 - - - -
06/10:30pm 7.6 W 5 10 1004.9 - 0.0 - - 10 - - - -
06/10:00pm 7.8 W 6 13 1004.9 - 0.0 - - 10 - - - -
06/09:30pm 8.0 W 7 11 1005.0 - 0.0 - - 10 - - - -
06/09:00pm 8.3 WNW 7 14 1004.6 - 0.0 - - 10 - - - -
06/08:30pm 8.2 W 7 11 1004.5 - 0.0 - - 10 - - - -
06/08:00pm 8.5 W 8 12 1004.4 - 0.0 - - 10 - - - -
06/07:30pm 9.0 W 9 19 1003.7 - 0.0 - - 10 - - - -
06/07:00pm 9.5 W 10 18 1002.8 - 0.0 - Partly cloudy 10 - - - -
06/06:30pm 9.2 W 8 15 1002.6 - 0.0 - Partly cloudy 10 - - - -
06/06:00pm 9.4 W 9 14 1002.3 - 0.0 - Partly cloudy 10 - - - -
06/05:30pm 11.1 W 10 21 1001.4 - 0.0 - Partly cloudy 10 - - - -
06/05:00pm 11.5 W 10 23 1000.5 - 0.0 - - 10 - - - -
06/04:30pm 12.1 W 10 26 1000.1 - 0.0 - - 10 - - - -
06/04:00pm 12.6 W 10 21 999.7 - 0.0 - Partly cloudy 10 - - - -
06/03:30pm 12.2 WSW 12 24 999.9 - 0.0 - Partly cloudy 10 - - - -
06/03:00pm 13.6 W 9 22 999.0 - 0.0 - - 10 - - - -
06/02:30pm 12.8 WSW 14 27 998.6 - 0.0 - Partly cloudy 10 - - - -
06/02:00pm 14.5 WSW 13 27 998.3 - 0.0 - Partly cloudy 10 - - - -
06/01:31pm 14.5 W 15 28 998.0 - 0.0 - - 10 - - - -
06/01:30pm 14.5 W 14 28 997.9 - 0.0 - - 10 - - - -
06/01:00pm 14.4 W 14 30 997.9 - 0.0 - - 10 - - - -
06/12:52pm 14.3 WNW 16 27 998.1 - 0.0 - - 10 - - - -
06/12:30pm 13.8 W 13 26 998.1 - 0.0 - Partly cloudy 10 - - - -
06/12:00pm 13.0 W 15 33 998.9 - 0.0 - Cloudy 10 - - - -
06/11:55am 13.0 W 15 28 998.8 - 0.0 - Partly cloudy 10 - - - -
06/11:30am 12.3 W 14 25 998.8 - 0.0 - Partly cloudy 10 - - - -
06/11:00am 12.9 W 15 31 998.8 - 0.0 - Partly cloudy 10 - - - -
06/10:30am 13.0 W 17 31 999.0 - 0.0 - Partly cloudy 10 - - - -
06/10:13am 13.4 WNW 15 29 999.3 - 0.0 - Partly cloudy 10 - - - -
06/10:00am 13.5 WNW 10 21 999.4 - 0.0 - Partly cloudy 10 - - - -
06/09:30am 12.3 W 9 22 999.9 - 0.0 - Partly cloudy 10 - - - -
06/09:00am 11.9 WNW 8 17 1000.4 - 4.0 Haze Partly cloudy 20 - - - -
06/08:30am 11.9 NW 5 12 1000.3 - 4.0 - Partly cloudy 10 - - - -
06/08:00am 11.4 NNW 11 22 999.7 - 4.0 - Partly cloudy 10 - - - -
06/07:30am 10.7 NNE 5 8 999.4 - 4.0 - Partly cloudy 10 - - - -
06/07:00am 10.7 NNW 6 12 998.7 - 4.0 - Cloudy 10 - - - -
06/06:30am 10.5 W 9 18 998.1 - 4.0 - Partly cloudy 10 - - - -
06/06:00am 10.5 NW 8 13 998.1 - 4.0 Fine Mostly clear 30 - - - -
06/05:30am 11.0 WNW 12 20 997.3 - 4.0 - - 10 - - - -
06/05:00am 10.9 W 11 30 996.8 - 4.0 - - 10 - - - -
06/04:30am 11.1 WNW 11 16 996.2 - 4.0 - Partly cloudy 10 - - - -
06/04:00am 11.3 W 11 19 995.6 - 4.0 - Partly cloudy 10 - - - -
06/03:30am 11.5 NW 11 25 995.1 - 4.0 - Partly cloudy 10 - - - -
06/03:00am 11.7 W 10 19 995.1 - 4.0 - Partly cloudy 10 - - - -
06/02:30am 11.7 W 8 13 995.0 - 4.0 - Partly cloudy 10 - - - -
06/02:00am 12.3 W 10 19 994.0 - 4.0 - Partly cloudy 10 - - - -
06/01:30am 12.5 W 14 41 993.2 - 4.0 - - 10 - - - -
06/01:28am 12.4 W 15 41 993.1 - 4.0 - - 10 - - - -
06/01:00am 12.6 W 13 23 993.0 - 4.0 - Partly cloudy 10 - - - -
06/12:38am 12.9 W 15 28 992.7 - 4.0 - Partly cloudy 10 - - - -
06/12:30am 12.9 W 14 27 992.4 - 4.0 - Partly cloudy 10 - - - -
06/12:12am 12.8 W 15 30 992.2 - 4.0 - Partly cloudy 10 - - - -
06/12:00am 12.9 W 14 28 992.3 - 4.0 - Mostly clear 10 - - - -
 
Date/Time
EST
Temp

°C
Wind Pressure Rain
since 9am
mm
Weather Cloud Vis
km
Sea
Height
m
Swell
Dir
 
Speed
knots
Gust
knots
hPa Trend Height
m
Period
s
Dir
05/11:36pm 13.1 W 15 28 992.2 - 4.0 - - 10 - - - -
05/11:30pm 13.2 W 13 28 992.1 - 4.0 - - 10 - - - -
05/11:07pm 13.5 W 15 36 992.0 - 4.0 - - 10 - - - -
05/11:00pm 13.3 W 15 26 991.9 - 4.0 - - 10 - - - -
05/10:30pm 13.7 W 18 36 991.0 - 4.0 - - 10 - - - -
05/10:00pm 13.8 W 18 35 989.6 - 4.0 - - 10 - - - -
05/09:30pm 14.1 W 18 38 988.8 - 4.0 - - 10 - - - -
05/09:04pm 14.0 W 15 31 988.7 - 4.0 - Partly cloudy 10 - - - -
05/09:00pm 14.1 W 14 31 988.5 - 4.0 - Mostly clear 10 - - - -
05/08:51pm 14.1 W 15 30 988.6 - 4.0 - Partly cloudy 10 - - - -
05/08:30pm 13.8 W 13 26 988.5 - 4.0 - Partly cloudy 10 - - - -
05/08:00pm 13.2 W 16 33 987.9 - 4.0 - Partly cloudy 10 - - - -
05/07:30pm 12.8 WNW 18 33 987.6 - 3.6 - Partly cloudy 10 - - - -
05/07:00pm 12.1 WNW 16 30 988.1 - 3.0 - Partly cloudy 10 - - - -
05/06:30pm 11.0 NW 20 31 987.7 - 2.8 - Partly cloudy 10 - - - -
05/06:00pm 11.4 NW 22 37 987.4 - 2.8 - Cloudy 10 - - - -
05/05:30pm 12.0 WNW 16 30 988.3 - 2.6 - Partly cloudy 10 - - - -
05/05:00pm 11.0 WNW 22 35 988.0 - 2.6 - Partly cloudy 10 - - - -
05/04:30pm 12.6 WNW 18 32 988.3 - 2.4 - - 10 - - - -
05/04:01pm 12.9 W 15 31 988.7 - 2.4 - Partly cloudy 10 - - - -
05/04:00pm 12.8 W 14 31 988.8 - 2.4 - Partly cloudy 10 - - - -
05/03:30pm 12.8 NW 19 31 988.8 - 2.4 - Partly cloudy 10 - - - -
05/03:00pm 13.0 WNW 17 31 989.3 - 2.4 - Cloudy 10 - - - -
05/02:43pm 12.7 WNW 19 29 989.3 - 2.4 - Partly cloudy 10 - - - -
05/02:30pm 13.4 W 11 22 989.3 - 2.4 - - 10 - - - -
05/02:07pm 14.0 WNW 15 26 989.2 - 2.4 - - - - - - -
05/02:00pm 14.2 W 12 26 989.2 - 2.4 - - - - - - -
05/01:30pm 12.6 NW 12 19 989.8 - 2.4 - - - - - - -
05/01:00pm 13.1 NW 13 22 989.5 - 2.2 - - - - - - -
05/12:30pm 12.6 WNW 11 20 990.4 - 2.2 - - - - - - -
05/12:00pm 13.3 W 12 25 991.3 - 1.8 - - - - - - -
05/11:30am 14.0 NNW 15 26 990.9 - 1.6 - Partly cloudy - - - - -
05/11:00am 14.0 NNW 16 27 991.7 - 1.4 - Partly cloudy - - - - -
05/10:30am 13.2 N 19 29 992.4 - 1.0 - Partly cloudy - - - - -
05/10:00am 13.8 N 20 33 992.8 - 0.2 - Partly cloudy 10 - - - -
05/09:48am 13.7 N 15 25 993.1 - 0.0 - Partly cloudy 10 - - - -
05/09:30am 13.4 N 16 25 993.4 - 0.0 - Cloudy 10 - - - -
05/09:22am 13.3 N 15 25 993.7 - 0.0 - Partly cloudy 10 - - - -
05/09:00am 13.1 N 16 21 994.3 - 7.8 Rain Mostly cloudy 20 - - - -
05/08:30am 13.2 N 15 23 995.5 - 7.4 - Partly cloudy 10 - - - -
05/08:00am 13.4 N 12 18 996.6 - 7.2 - Cloudy 10 - - - -
05/07:30am 13.2 NNW 9 14 997.6 - 5.0 - Partly cloudy 6 - - - -
05/07:00am 13.5 NW 8 12 998.1 - 2.6 - Partly cloudy 10 - - - -
05/06:30am 13.5 NNW 9 14 998.7 - 1.8 - Partly cloudy 10 - - - -
05/06:00am 13.9 N 10 14 999.0 - 1.4 Rain Cloudy 5 - - - -
05/05:30am 14.1 NNW 9 16 998.8 - 0.6 - Cloudy 10 - - - -
05/05:00am 14.6 N 6 8 998.8 - 0.0 - Cloudy 10 - - - -
05/04:30am 14.6 NW 4 5 999.6 - 0.0 - Partly cloudy 10 - - - -
05/04:00am 15.1 N 11 17 1000.3 - 0.0 - Partly cloudy 10 - - - -
05/03:30am 15.1 N 9 14 1000.9 - 0.0 - Partly cloudy 10 - - - -
05/03:00am 14.2 N 7 10 1001.6 - 0.0 - Mostly clear 10 - - - -
05/02:30am 13.8 WNW 6 11 1002.7 - 0.0 - Partly cloudy 10 - - - -
05/02:00am 14.2 NW 10 15 1003.1 - 0.0 - Partly cloudy 10 - - - -
05/01:46am 14.0 NW 10 15 1003.7 - 0.0 - Partly cloudy 10 - - - -
05/01:30am 13.8 NW 9 14 1003.9 - 0.0 - Partly cloudy 10 - - - -
05/01:00am 13.7 WNW 6 10 1003.5 - 0.0 - Cloudy 10 - - - -
05/12:42am 14.2 NNW 9 14 1003.7 - 0.0 - Partly cloudy 10 - - - -
05/12:30am 13.6 NNW 7 11 1003.7 - 0.0 - - 10 - - - -
05/12:00am 13.4 NW 7 11 1004.8 - 0.0 - - 10 - - - -
 
Date/Time
EST
Temp

°C
Wind Pressure Rain
since 9am
mm
Weather Cloud Vis
km
Sea
Height
m
Swell
Dir
 
Speed
knots
Gust
knots
hPa Trend Height
m
Period
s
Dir
04/11:30pm 13.8 NNW 8 11 1005.3 - 0.0 - - 10 - - - -
04/11:00pm 13.6 N 9 13 1005.6 - 0.0 - Partly cloudy 10 - - - -
04/10:30pm 14.2 N 12 19 1006.5 - 0.0 - - 10 - - - -
04/10:00pm 13.8 NNW 9 13 1007.2 - 0.0 - - 10 - - - -
04/09:30pm 12.9 NW 8 13 1007.5 - 0.0 - - 10 - - - -
04/09:00pm 12.2 WNW 5 10 1007.8 - 0.0 - - 10 - - - -
04/08:30pm 12.2 WNW 3 7 1007.8 - 0.0 - - 10 - - - -
04/08:00pm 12.0 WNW 2 5 1008.5 - 0.0 - - 10 - - - -
04/07:30pm 12.3 NNW 2 4 1008.6 - 0.0 - - 10 - - - -
04/07:00pm 12.6 N 5 6 1008.8 - 0.0 - - 10 - - - -
04/06:30pm 13.3 NNW 5 7 1009.1 - 0.0 - - 10 - - - -
04/06:00pm 14.0 NNW 6 9 1009.0 - 0.0 - - 10 - - - -
04/05:30pm 14.5 NNW 5 9 1008.8 - 0.0 - - 10 - - - -
04/05:00pm 15.3 NNW 7 10 1009.0 - 0.0 - - 10 - - - -
04/04:30pm 15.6 NNW 6 9 1009.4 - 0.0 - - 10 - - - -
04/04:00pm 15.8 NNW 6 11 1009.6 - 0.0 - - 10 - - - -
04/03:30pm 16.0 NW 7 11 1010.1 - 0.0 - Partly cloudy 10 - - - -
04/03:00pm 16.2 NW 8 12 1010.3 - 0.0 - Mostly clear 10 - - - -
04/02:30pm 16.4 NNW 8 12 1010.3 - 0.0 - - 10 - - - -
04/02:00pm 16.9 NNW 8 14 1010.7 - 0.0 - - 10 - - - -
04/01:30pm 17.1 WNW 6 12 1010.9 - 0.0 - - 10 - - - -
04/01:00pm 17.3 NW 5 11 1011.5 - 0.0 - - 10 - - - -
04/12:30pm 18.1 NW 7 11 1012.3 - 0.0 - Partly cloudy 10 - - - -
04/12:00pm 16.2 NNE 5 8 1012.9 - 0.0 - Partly cloudy 10 - - - -
04/11:30am 17.0 NNW 6 8 1013.5 - 0.0 - Partly cloudy 10 - - - -
04/11:00am 16.0 N 4 6 1013.8 - 0.0 - Partly cloudy 10 - - - -
04/10:30am 15.8 N 5 8 1014.2 - 0.0 - - 10 - - - -
04/10:00am 14.4 NW 2 4 1014.6 - 0.0 - Partly cloudy 10 - - - -
04/09:30am 11.7 CALM 0 2 1015.0 - 0.0 - - 10 - - - -
04/09:00am 10.4 NNW 4 4 1015.3 - 0.2 Fine Partly cloudy 25 - - - -

Other Formats:

Comma delimited format used in spreadsheet applications
http://www.bom.gov.au/fwo/IDT60701/IDT60701.95981.axf

JavaScript Object Notation format (JSON) in row-major order
http://www.bom.gov.au/fwo/IDT60701/IDT60701.95981.json